Time;durP1;ratioP1;P1;durP2;ratioP2;P2;SDS_P1;SDS_P2;PMS_P1;PMS_P2;Temp;Humidity;BMP_temperature;BMP_pressure;BME280_temperature;BME280_humidity;BME280_pressure;Samples;Min_cycle;Max_cycle;Signal;HPM_P1;HPM_P2
2024/04/23 00:01:08;;;;;;;7.43;3.63;;;;;;;10.97;69.01;93848.53;5538802;26;19992;-78
2024/04/23 00:03:34;;;;;;;5.32;3.20;;;;;;;10.97;69.10;93847.72;5538534;25;20041;-78
2024/04/23 00:05:59;;;;;;;6.75;3.90;;;;;;;11.00;69.46;93855.09;5538778;26;19990;-78
2024/04/23 00:08:24;;;;;;;6.88;3.65;;;;;;;11.04;69.53;93856.03;5538108;26;20054;-77
2024/04/23 00:10:50;;;;;;;7.10;3.97;;;;;;;11.00;68.85;93847.88;5538490;26;19996;-78
2024/04/23 00:13:15;;;;;;;9.73;4.22;;;;;;;11.02;69.01;93848.34;5538568;26;19986;-78
2024/04/23 00:15:41;;;;;;;8.23;4.25;;;;;;;11.01;68.85;93846.78;5506754;26;19992;-77
2024/04/23 00:18:06;;;;;;;8.05;3.72;;;;;;;10.94;68.96;93846.47;5506692;26;19997;-78
2024/04/23 00:20:32;;;;;;;5.75;3.78;;;;;;;10.87;69.47;93846.19;5538611;26;19997;-78
2024/04/23 00:22:57;;;;;;;6.75;3.92;;;;;;;10.76;69.82;93829.69;5538409;25;20001;-77
2024/04/23 00:25:22;;;;;;;5.43;3.38;;;;;;;10.64;70.31;93832.22;5538349;26;19993;-77
2024/04/23 00:27:48;;;;;;;5.50;3.55;;;;;;;10.62;71.13;93829.06;5538313;26;19990;-77
2024/04/23 00:30:13;;;;;;;9.88;3.63;;;;;;;10.61;71.83;93836.28;5538433;26;19996;-77
2024/04/23 00:32:39;;;;;;;6.35;3.38;;;;;;;10.62;71.98;93829.88;5538004;26;20093;-77
2024/04/23 00:35:04;;;;;;;6.13;3.42;;;;;;;10.67;71.62;93825.50;5537918;26;19981;-77
2024/04/23 00:37:29;;;;;;;8.40;3.33;;;;;;;10.76;72.02;93834.25;5537877;26;20141;-77
2024/04/23 00:39:55;;;;;;;5.60;3.60;;;;;;;10.80;74.27;93829.84;5537610;26;19992;-76
2024/04/23 00:42:21;;;;;;;8.05;3.75;;;;;;;10.87;75.27;93830.19;5537283;26;20033;-76
2024/04/23 00:44:47;;;;;;;5.03;3.17;;;;;;;10.92;75.96;93823.91;5541156;26;20055;-76
2024/04/23 00:47:13;;;;;;;7.13;3.60;;;;;;;10.97;77.21;93835.19;5541480;25;20193;-76
2024/04/23 00:49:39;;;;;;;6.95;3.83;;;;;;;11.07;78.70;93833.28;5541287;26;20126;-76
2024/04/23 00:52:05;;;;;;;6.95;4.22;;;;;;;11.06;78.92;93819.16;5541055;25;19997;-77
2024/04/23 00:54:31;;;;;;;5.78;3.47;;;;;;;11.05;79.24;93822.91;5541021;26;19997;-76
2024/04/23 00:56:57;;;;;;;5.50;3.50;;;;;;;11.04;79.70;93824.03;5540993;25;20192;-76
2024/04/23 00:59:24;;;;;;;6.03;3.60;;;;;;;11.10;79.74;93824.66;5541085;26;20076;-77
2024/04/23 01:01:52;;;;;;;7.25;4.25;;;;;;;11.12;80.09;93809.13;5540884;25;20022;-77
2024/04/23 01:04:18;;;;;;;7.18;4.07;;;;;;;11.16;79.93;93802.06;5540907;26;20103;-77
2024/04/23 01:06:43;;;;;;;6.97;4.15;;;;;;;11.17;80.43;93795.59;5540792;25;19981;-77
2024/04/23 01:09:09;;;;;;;9.60;4.13;;;;;;;11.19;80.39;93804.88;5541007;26;20196;-77
2024/04/23 01:11:34;;;;;;;8.00;4.72;;;;;;;11.20;80.69;93798.41;5541171;25;20003;-77
2024/04/23 01:14:04;;;;;;;6.78;4.32;;;;;;;11.24;80.90;93795.91;5541026;26;19993;-77
2024/04/23 01:16:34;;;;;;;7.65;3.90;;;;;;;11.23;80.53;93789.00;5540540;25;19986;-77
2024/04/23 01:19:00;;;;;;;6.40;4.32;;;;;;;11.21;80.48;93788.53;5538788;25;20405;-77
2024/04/23 01:21:33;;;;;;;10.68;4.95;;;;;;;11.20;81.14;93784.31;5539097;26;20437;-77
2024/04/23 01:24:06;;;;;;;6.32;4.38;;;;;;;11.21;81.07;93781.34;5538021;25;20110;-77
2024/04/23 01:26:33;;;;;;;6.82;4.00;;;;;;;11.21;81.26;93769.84;5540687;26;20083;-77
2024/04/23 01:28:58;;;;;;;8.88;3.88;;;;;;;11.21;81.40;93768.00;5540205;25;20037;-77
2024/04/23 01:31:25;;;;;;;6.45;4.40;;;;;;;11.25;81.43;93781.44;5540494;25;19993;-77
2024/04/23 01:33:54;;;;;;;7.35;4.38;;;;;;;11.23;81.47;93762.31;5540390;25;20038;-77
2024/04/23 01:36:20;;;;;;;8.43;4.45;;;;;;;11.20;82.07;93758.41;5540605;25;19993;-77
2024/04/23 01:38:47;;;;;;;6.65;4.35;;;;;;;11.17;82.73;93751.06;5508692;26;20084;-76
2024/04/23 01:41:13;;;;;;;7.05;4.22;;;;;;;11.16;82.90;93748.69;5540704;26;19989;-77
2024/04/23 01:43:39;;;;;;;9.55;3.97;;;;;;;11.18;83.31;93749.16;5539858;25;20200;-77
2024/04/23 01:46:24;;;;;;;6.75;4.45;;;;;;;11.14;83.55;93726.91;5540187;26;20181;-77
2024/04/23 01:48:49;;;;;;;7.18;4.05;;;;;;;11.14;83.41;93729.56;5540702;25;19997;-77
2024/04/23 01:51:15;;;;;;;8.43;4.05;;;;;;;11.14;83.41;93725.00;5540526;25;20054;-77
2024/04/23 01:53:41;;;;;;;7.57;4.07;;;;;;;11.12;83.63;93734.44;5540065;26;19981;-77
2024/04/23 01:56:06;;;;;;;8.80;4.85;;;;;;;11.13;83.67;93720.75;5539509;25;20089;-77
2024/04/23 01:58:32;;;;;;;5.45;4.10;;;;;;;11.09;83.79;93717.16;5540271;26;20001;-77
2024/04/23 02:00:58;;;;;;;9.85;4.75;;;;;;;11.11;84.09;93717.63;5540493;25;20245;-77
2024/04/23 02:03:24;;;;;;;7.45;4.90;;;;;;;11.10;84.06;93720.63;5540412;26;19996;-77
2024/04/23 02:05:52;;;;;;;7.22;4.40;;;;;;;11.11;83.75;93722.19;5539868;26;20010;-77
2024/04/23 02:08:17;;;;;;;7.70;4.97;;;;;;;11.13;83.85;93717.31;5539937;25;20079;-77
2024/04/23 02:10:44;;;;;;;11.32;4.72;;;;;;;11.15;83.48;93731.13;5539987;26;20154;-77
2024/04/23 02:13:10;;;;;;;8.18;4.38;;;;;;;11.13;83.87;93722.66;5540238;26;19989;-76
2024/04/23 02:15:35;;;;;;;6.80;5.03;;;;;;;11.18;83.96;93701.16;5539992;26;20088;-77
2024/04/23 02:18:01;;;;;;;9.90;4.70;;;;;;;11.19;84.18;93708.03;5539565;26;19986;-77
2024/04/23 02:20:26;;;;;;;8.85;4.63;;;;;;;11.19;84.18;93700.03;5539932;26;19989;-76
2024/04/23 02:22:51;;;;;;;6.20;4.60;;;;;;;11.15;84.23;93705.22;5539769;25;20041;-76
2024/04/23 02:25:17;;;;;;;8.15;4.65;;;;;;;11.17;84.00;93694.22;5539694;26;19981;-76
2024/04/23 02:27:42;;;;;;;9.45;4.70;;;;;;;11.14;83.78;93695.66;5539767;25;19991;-76
2024/04/23 02:30:08;;;;;;;8.38;4.45;;;;;;;11.13;84.06;93688.75;5539485;25;19986;-76
2024/04/23 02:32:33;;;;;;;6.15;4.43;;;;;;;11.13;84.01;93686.09;5539832;26;19996;-76
2024/04/23 02:34:59;;;;;;;6.90;4.50;;;;;;;11.14;83.92;93679.66;5539881;26;19996;-76
2024/04/23 02:37:24;;;;;;;8.43;4.32;;;;;;;11.10;83.63;93677.97;5539693;25;20038;-77
2024/04/23 02:39:50;;;;;;;6.90;4.20;;;;;;;11.07;83.88;93689.25;5539614;26;19982;-76
2024/04/23 02:42:15;;;;;;;6.10;4.40;;;;;;;11.12;83.81;93707.75;5539520;26;19982;-77
2024/04/23 02:44:40;;;;;;;8.05;4.40;;;;;;;11.10;83.90;93694.75;5539760;26;19991;-76
2024/04/23 02:47:06;;;;;;;5.25;3.58;;;;;;;11.11;84.16;93696.28;5539476;26;20140;-77
2024/04/23 02:49:31;;;;;;;7.28;4.55;;;;;;;11.12;83.68;93692.53;5539397;26;20006;-76
2024/04/23 02:51:58;;;;;;;6.35;4.07;;;;;;;11.07;83.57;93678.59;5539676;26;20033;-76
2024/04/23 02:54:24;;;;;;;7.22;4.55;;;;;;;10.99;83.83;93686.31;5539126;25;20237;-76
2024/04/23 02:56:50;;;;;;;5.95;3.97;;;;;;;10.98;83.68;93675.97;5539397;26;19985;-76
2024/04/23 02:59:16;;;;;;;10.13;4.30;;;;;;;10.95;83.66;93685.38;5539557;25;19987;-76
2024/04/23 03:01:42;;;;;;;6.57;4.32;;;;;;;10.88;83.80;93698.41;5507612;26;19985;-75
2024/04/23 03:04:08;;;;;;;6.50;4.30;;;;;;;10.87;84.35;93688.06;5539329;25;19985;-77
2024/04/23 03:06:33;;;;;;;6.85;4.25;;;;;;;10.77;83.94;93676.66;5538371;25;20030;-77
2024/04/23 03:08:58;;;;;;;9.05;4.15;;;;;;;10.73;84.54;93670.41;5539303;25;19985;-76
2024/04/23 03:11:24;;;;;;;6.65;4.43;;;;;;;10.66;84.82;93671.97;5539296;26;20097;-77
2024/04/23 03:13:49;;;;;;;6.22;4.25;;;;;;;10.62;84.90;93664.63;5539386;25;20034;-77
2024/04/23 03:16:15;;;;;;;10.43;5.00;;;;;;;10.57;85.10;93672.78;5539713;25;20111;-77
2024/04/23 03:18:40;;;;;;;9.02;4.53;;;;;;;10.59;85.46;93691.13;5538910;26;20041;-77
2024/04/23 03:21:05;;;;;;;7.57;4.55;;;;;;;10.56;85.35;93681.88;5539048;26;20280;-77
2024/04/23 03:23:31;;;;;;;6.63;4.07;;;;;;;10.56;85.25;93671.22;5539255;26;19986;-77
2024/04/23 03:25:56;;;;;;;5.65;4.07;;;;;;;10.56;85.04;93673.91;5507436;26;20092;-78
2024/04/23 03:28:21;;;;;;;8.18;4.47;;;;;;;10.50;85.17;93680.50;5539034;26;19992;-78
2024/04/23 03:30:47;;;;;;;6.07;3.97;;;;;;;10.50;85.75;93680.50;5539170;26;19999;-78
2024/04/23 03:33:12;;;;;;;7.05;4.57;;;;;;;10.51;85.79;93684.69;5538806;26;20092;-78
2024/04/23 03:35:37;;;;;;;9.50;5.22;;;;;;;10.50;85.05;93688.47;5538750;25;19992;-79
2024/04/23 03:38:05;;;;;;;9.50;4.80;;;;;;;10.44;85.78;93679.06;5538868;26;20118;-78
2024/04/23 03:40:30;;;;;;;7.28;4.80;;;;;;;10.40;85.45;93696.78;5538752;25;20206;-78
2024/04/23 03:42:56;;;;;;;8.30;5.22;;;;;;;10.40;86.32;93694.91;5538852;26;19981;-78
2024/04/23 03:45:21;;;;;;;8.73;5.15;;;;;;;10.38;85.77;93699.78;5538531;26;19989;-78
2024/04/23 03:47:47;;;;;;;12.57;5.82;;;;;;;10.33;85.97;93704.47;5538080;25;20052;-77
2024/04/23 03:50:12;;;;;;;7.43;5.15;;;;;;;10.34;85.85;93695.38;5538594;25;20120;-78
2024/04/23 03:52:37;;;;;;;12.30;7.20;;;;;;;10.31;85.93;93688.03;5538939;25;19982;-78
2024/04/23 03:55:03;;;;;;;14.23;7.18;;;;;;;10.28;85.46;93677.94;5538207;25;19985;-78
2024/04/23 03:57:28;;;;;;;9.27;7.10;;;;;;;10.32;85.28;93676.25;5538125;25;19997;-78
2024/04/23 03:59:54;;;;;;;10.70;7.28;;;;;;;10.36;85.14;93680.66;5538319;26;20244;-77
2024/04/23 04:07:50;;;;;;;11.30;7.13;;;;;;;10.37;82.98;93676.88;5537980;25;20084;-77
2024/04/23 04:10:16;;;;;;;12.45;7.32;;;;;;;10.37;82.03;93673.44;5538233;25;19997;-78
2024/04/23 04:12:41;;;;;;;10.40;7.10;;;;;;;10.41;81.22;93675.16;5538162;25;19992;-77
2024/04/23 04:15:07;;;;;;;10.05;6.85;;;;;;;10.39;80.73;93674.69;5538007;25;19992;-77
2024/04/23 04:17:32;;;;;;;14.88;7.53;;;;;;;10.43;80.99;93672.19;5537725;25;19995;-77
2024/04/23 04:19:57;;;;;;;8.35;6.25;;;;;;;10.51;81.10;93667.94;5541768;26;20037;-77
2024/04/23 04:22:23;;;;;;;10.38;6.95;;;;;;;10.55;80.60;93669.66;5541481;25;19989;-77
2024/04/23 04:24:48;;;;;;;10.65;6.50;;;;;;;10.61;80.28;93672.94;5541647;26;19989;-77
2024/04/23 04:27:13;;;;;;;9.00;6.38;;;;;;;10.58;80.51;93663.69;5541441;26;19992;-77
2024/04/23 04:29:39;;;;;;;12.40;7.13;;;;;;;10.65;80.43;93660.53;5541843;26;19992;-77
2024/04/23 04:32:08;;;;;;;8.98;6.32;;;;;;;10.70;80.88;93667.56;5541273;25;20150;-76
2024/04/23 04:34:33;;;;;;;10.63;6.15;;;;;;;10.69;81.28;93664.13;5541349;26;19993;-77
2024/04/23 04:36:59;;;;;;;8.48;6.68;;;;;;;10.69;81.34;93664.13;5541515;26;19989;-77
2024/04/23 04:39:24;;;;;;;9.57;7.75;;;;;;;10.73;81.37;93664.28;5541405;25;19989;-76
2024/04/23 04:41:49;;;;;;;12.75;8.55;;;;;;;10.76;81.30;93668.97;5540677;25;19981;-77
2024/04/23 04:44:15;;;;;;;11.77;7.68;;;;;;;10.76;80.76;93677.75;5541496;25;19997;-77
2024/04/23 04:46:40;;;;;;;12.75;7.55;;;;;;;10.75;80.71;93683.41;5541336;26;20209;-77
2024/04/23 04:49:06;;;;;;;9.65;7.90;;;;;;;10.69;81.03;93690.00;5541066;26;19993;-77
2024/04/23 04:51:31;;;;;;;9.40;7.75;;;;;;;10.70;81.01;93702.22;5541498;25;19981;-77
2024/04/23 04:53:57;;;;;;;13.60;8.85;;;;;;;10.72;81.20;93710.69;5540835;26;19985;-77
2024/04/23 04:56:22;;;;;;;10.98;7.47;;;;;;;10.73;80.86;93712.28;5540669;26;20213;-77
2024/04/23 04:58:47;;;;;;;14.90;8.23;;;;;;;10.74;80.73;93719.16;5540747;25;19992;-77
2024/04/23 05:01:13;;;;;;;9.38;6.93;;;;;;;10.80;80.38;93697.34;5540740;25;20038;-76
2024/04/23 05:03:38;;;;;;;10.73;7.60;;;;;;;10.83;79.82;93691.38;5540333;26;19982;-77
2024/04/23 05:06:04;;;;;;;10.30;7.60;;;;;;;10.86;79.76;93700.63;5540466;26;19986;-77
2024/04/23 05:08:29;;;;;;;10.90;7.20;;;;;;;10.74;79.93;93692.50;5540650;25;19985;-77
2024/04/23 05:10:54;;;;;;;11.95;7.80;;;;;;;10.44;81.81;93695.03;5541004;26;19996;-76
2024/04/23 05:13:20;;;;;;;13.45;8.25;;;;;;;10.57;82.33;93694.09;5541096;25;20130;-76
2024/04/23 05:15:45;;;;;;;11.38;7.78;;;;;;;10.70;81.92;93686.22;5540834;26;20005;-76
2024/04/23 05:18:11;;;;;;;14.27;8.63;;;;;;;10.74;81.89;93671.16;5540505;25;20001;-76
2024/04/23 05:20:36;;;;;;;11.68;8.30;;;;;;;10.81;84.37;93660.81;5508600;26;19993;-81
2024/04/23 05:23:02;;;;;;;11.02;8.13;;;;;;;10.84;84.10;93665.50;5540272;25;19985;-81
2024/04/23 05:25:27;;;;;;;11.57;8.65;;;;;;;10.88;84.96;93686.97;5540175;25;19993;-81
2024/04/23 05:27:52;;;;;;;16.08;9.45;;;;;;;10.87;85.76;93696.88;5540344;26;19986;-82
2024/04/23 05:33:05;;;;;;;14.32;7.70;;;;;;;10.89;85.01;93678.66;5540090;26;19988;-82
2024/04/23 05:35:31;;;;;;;18.77;8.68;;;;;;;10.96;85.19;93684.28;5539997;25;19992;-82
2024/04/23 05:37:56;;;;;;;13.77;8.50;;;;;;;11.00;84.05;93703.09;5539881;25;20162;-83
2024/04/23 05:40:22;;;;;;;12.90;8.13;;;;;;;10.94;84.84;93694.47;5540082;26;20077;-81
2024/04/23 05:42:48;;;;;;;15.52;8.10;;;;;;;10.98;84.78;93674.06;5539734;25;19993;-81
2024/04/23 05:45:15;;;;;;;12.88;7.75;;;;;;;10.99;84.18;93674.84;5539859;25;20014;-82
2024/04/23 05:48:18;;;;;;;11.25;7.85;;;;;;;10.96;83.88;93654.94;5539370;25;19985;-81
2024/04/23 05:51:21;;;;;;;10.75;7.28;;;;;;;10.92;83.39;93655.91;5540290;25;20127;-81
2024/04/23 05:54:24;;;;;;;9.80;6.55;;;;;;;10.89;83.53;93661.84;5539458;25;20232;-82
2024/04/23 05:56:50;;;;;;;10.90;7.47;;;;;;;10.87;83.55;93664.88;5539458;25;19985;-81
2024/04/23 05:59:16;;;;;;;10.05;7.60;;;;;;;10.90;84.07;93655.44;5539939;25;19993;-82
2024/04/23 06:01:41;;;;;;;15.07;7.15;;;;;;;10.88;83.96;93677.09;5539816;25;19990;-79
2024/04/23 06:04:07;;;;;;;16.80;8.55;;;;;;;10.93;84.08;93684.94;5539444;26;20015;-79
2024/04/23 06:06:32;;;;;;;31.77;8.27;;;;;;;10.98;83.77;93698.06;5539596;25;20037;-79
2024/04/23 06:08:58;;;;;;;11.88;7.65;;;;;;;10.98;83.82;93703.41;5539449;26;19993;-79
2024/04/23 06:11:23;;;;;;;14.73;8.32;;;;;;;10.97;83.67;93712.53;5539576;26;19993;-78
2024/04/23 06:13:48;;;;;;;12.77;8.05;;;;;;;10.97;83.26;93712.53;5539507;26;19982;-78
2024/04/23 06:16:14;;;;;;;9.93;7.10;;;;;;;11.00;83.43;93706.53;5539588;26;19985;-77
2024/04/23 06:18:39;;;;;;;13.10;8.40;;;;;;;10.94;83.40;93697.13;5539791;25;19982;-77
2024/04/23 06:21:06;;;;;;;12.85;8.82;;;;;;;11.00;83.59;93671.88;5539728;26;20134;-77
2024/04/23 06:23:32;;;;;;;19.63;9.20;;;;;;;11.02;83.41;93675.00;5539929;25;19985;-78
2024/04/23 06:25:58;;;;;;;11.80;7.85;;;;;;;11.08;83.74;93672.94;5539469;26;20089;-77
2024/04/23 06:28:23;;;;;;;11.32;7.88;;;;;;;11.08;83.63;93664.16;5539461;25;19985;-77
2024/04/23 06:30:50;;;;;;;14.38;8.00;;;;;;;11.09;82.86;93665.72;5539230;26;20133;-77
2024/04/23 06:33:16;;;;;;;9.23;7.75;;;;;;;11.08;83.23;93678.28;5539568;26;20092;-77
2024/04/23 06:35:41;;;;;;;12.25;7.85;;;;;;;11.09;83.28;93692.38;5538919;26;19990;-77
2024/04/23 06:38:06;;;;;;;15.82;7.22;;;;;;;11.10;83.64;93701.97;5538945;25;20006;-77
2024/04/23 06:40:32;;;;;;;10.10;7.88;;;;;;;11.15;84.52;93691.88;5538753;26;19985;-77
2024/04/23 06:42:57;;;;;;;12.18;8.15;;;;;;;11.18;84.56;93695.81;5538929;25;19992;-77
2024/04/23 06:45:23;;;;;;;9.85;7.82;;;;;;;11.20;84.64;93690.94;5538769;26;20037;-81
2024/04/23 06:47:50;;;;;;;14.88;8.63;;;;;;;11.19;83.56;93710.69;5538917;26;20074;-76
2024/04/23 06:50:16;;;;;;;8.90;7.32;;;;;;;11.11;83.93;93709.63;5538708;26;19985;-77
2024/04/23 06:52:41;;;;;;;11.73;7.97;;;;;;;11.06;83.84;93709.03;5539214;25;20246;-79
2024/04/23 06:55:06;;;;;;;13.40;8.82;;;;;;;11.04;84.73;93718.13;5539520;25;20243;-77
2024/04/23 06:57:32;;;;;;;17.67;8.05;;;;;;;11.06;84.58;93703.72;5538884;25;19996;-77
2024/04/23 06:59:57;;;;;;;12.80;8.38;;;;;;;11.08;84.88;93690.84;5539192;25;20105;-77
2024/04/23 07:02:24;;;;;;;11.40;8.43;;;;;;;11.11;84.96;93700.84;5538470;25;20044;-77
2024/04/23 07:04:49;;;;;;;13.30;9.18;;;;;;;11.14;84.91;93692.22;5537540;25;19993;-77
2024/04/23 07:07:15;;;;;;;16.90;7.95;;;;;;;11.14;85.00;93687.66;5538541;26;19989;-77
2024/04/23 07:09:40;;;;;;;13.70;7.97;;;;;;;11.21;85.19;93673.81;5536240;25;19990;-77
2024/04/23 07:12:06;;;;;;;10.70;6.63;;;;;;;11.22;84.66;93664.72;5535882;25;20073;-77
2024/04/23 07:14:31;;;;;;;12.48;8.10;;;;;;;11.17;83.88;93651.56;5535419;25;19990;-77
2024/04/23 07:16:56;;;;;;;11.18;7.07;;;;;;;11.24;84.55;93652.63;5504012;26;19995;-76
2024/04/23 07:19:22;;;;;;;13.27;7.43;;;;;;;11.27;84.89;93635.19;5536272;25;20087;-76
2024/04/23 07:21:47;;;;;;;9.55;7.32;;;;;;;11.27;84.76;93623.72;5535433;26;20201;-77
2024/04/23 07:24:13;;;;;;;14.73;8.57;;;;;;;11.34;85.53;93619.47;5538413;25;19985;-77
2024/04/23 07:26:39;;;;;;;13.07;7.25;;;;;;;11.36;85.69;93617.25;5538243;25;20209;-76
2024/04/23 07:29:04;;;;;;;11.93;7.68;;;;;;;11.44;85.16;93623.66;5507308;26;20000;-77
2024/04/23 07:31:30;;;;;;;17.75;7.88;;;;;;;11.53;85.14;93615.56;5538149;26;19985;-77
2024/04/23 07:33:55;;;;;;;13.68;7.88;;;;;;;11.58;84.92;93616.16;5538097;25;20005;-76
2024/04/23 07:36:21;;;;;;;9.82;6.78;;;;;;;11.68;83.69;93614.97;5538254;26;20041;-76
2024/04/23 07:38:46;;;;;;;10.50;7.05;;;;;;;11.78;84.06;93614.59;5506996;26;19985;-77
2024/04/23 07:41:14;;;;;;;10.95;7.05;;;;;;;11.80;83.43;93617.72;5506906;26;19989;-76
2024/04/23 07:43:40;;;;;;;11.63;6.90;;;;;;;11.85;83.55;93622.09;5538394;25;19985;-77
2024/04/23 07:46:05;;;;;;;11.52;7.05;;;;;;;11.92;83.17;93627.72;5538420;25;20018;-77
2024/04/23 07:48:31;;;;;;;11.38;6.50;;;;;;;11.96;82.35;93623.28;5538662;26;19985;-77
2024/04/23 07:50:58;;;;;;;8.88;6.43;;;;;;;12.01;82.99;93617.75;5538245;26;19993;-77
2024/04/23 07:53:23;;;;;;;11.25;6.47;;;;;;;12.09;82.50;93618.00;5537258;25;19989;-77
2024/04/23 07:55:49;;;;;;;8.13;6.45;;;;;;;12.15;81.79;93614.00;5538048;25;20010;-77
2024/04/23 07:58:14;;;;;;;7.50;5.63;;;;;;;12.18;81.41;93610.69;5538658;25;20005;-77
2024/04/23 08:00:39;;;;;;;7.63;5.15;;;;;;;12.24;81.18;93612.81;5506757;26;19981;-77
2024/04/23 08:03:07;;;;;;;11.48;5.85;;;;;;;12.34;80.82;93605.50;5538515;25;19981;-77
2024/04/23 08:05:32;;;;;;;8.23;4.95;;;;;;;12.35;80.73;93591.03;5537924;25;19981;-77
2024/04/23 08:07:58;;;;;;;6.70;4.78;;;;;;;12.38;80.55;93585.81;5505822;26;20089;-76
2024/04/23 08:10:23;;;;;;;6.47;4.28;;;;;;;12.43;79.86;93582.13;5537394;26;19997;-76
2024/04/23 08:12:52;;;;;;;4.55;3.55;;;;;;;12.47;79.40;93567.00;5537949;26;19992;-77
2024/04/23 08:15:17;;;;;;;5.03;3.30;;;;;;;12.50;79.08;93581.63;5537572;26;20201;-77
2024/04/23 08:17:43;;;;;;;6.63;3.72;;;;;;;12.45;79.16;93575.34;5537820;26;20041;-77
2024/04/23 08:20:10;;;;;;;4.28;3.25;;;;;;;12.38;78.75;93567.09;5537501;25;20038;-77
2024/04/23 08:22:36;;;;;;;7.72;4.13;;;;;;;12.37;78.76;93562.84;5537352;25;19992;-77
2024/04/23 08:25:01;;;;;;;7.15;4.05;;;;;;;12.35;78.52;93567.75;5537369;26;19989;-76
2024/04/23 08:27:27;;;;;;;7.10;4.00;;;;;;;12.27;78.34;93573.19;5537893;25;19993;-76
2024/04/23 08:29:52;;;;;;;11.23;3.72;;;;;;;12.15;79.09;93582.75;5537709;25;20054;-76
2024/04/23 08:32:17;;;;;;;4.35;2.92;;;;;;;12.04;79.19;93573.56;5537411;26;19989;-76
2024/04/23 08:34:43;;;;;;;5.63;3.20;;;;;;;11.97;79.82;93584.03;5537394;25;19981;-76
2024/04/23 08:37:09;;;;;;;4.93;2.95;;;;;;;11.92;79.86;93576.97;5537489;25;19997;-76
2024/04/23 08:39:35;;;;;;;5.43;2.55;;;;;;;11.82;80.48;93588.03;5537699;25;19992;-76
2024/04/23 08:42:09;;;;;;;6.82;2.90;;;;;;;11.80;81.23;93587.56;5505623;26;20006;-76
2024/04/23 08:44:39;;;;;;;3.72;2.60;;;;;;;11.76;81.50;93586.66;5536537;25;20001;-76
2024/04/23 08:47:05;;;;;;;6.85;2.75;;;;;;;11.75;81.97;93585.13;5536152;25;19993;-76
2024/04/23 08:49:31;;;;;;;5.43;2.92;;;;;;;11.72;82.41;93583.06;5537123;26;20042;-76
2024/04/23 08:51:58;;;;;;;4.93;2.53;;;;;;;11.65;82.68;93570.25;5536680;26;20043;-76
2024/04/23 08:54:24;;;;;;;3.70;2.45;;;;;;;11.64;83.34;93574.03;5536296;26;19988;-76
2024/04/23 08:56:50;;;;;;;5.63;2.63;;;;;;;11.62;84.20;93570.91;5537314;26;20177;-75
2024/04/23 08:59:18;;;;;;;5.47;1.98;;;;;;;11.62;84.32;93573.56;5537323;25;19993;-75
2024/04/23 09:01:48;;;;;;;7.40;2.53;;;;;;;11.64;84.67;93579.38;5537195;26;19985;-75
2024/04/23 09:04:14;;;;;;;12.80;2.80;;;;;;;11.70;84.71;93577.28;5538292;26;19993;-77
2024/04/23 09:06:40;;;;;;;5.45;2.28;;;;;;;11.66;84.94;93577.16;5540315;25;19985;-75
2024/04/23 09:09:06;;;;;;;4.63;2.10;;;;;;;11.64;84.90;93574.84;5540752;25;20033;-75
2024/04/23 09:11:32;;;;;;;3.47;1.83;;;;;;;11.61;85.52;93582.69;5540493;25;20034;-74
2024/04/23 09:14:01;;;;;;;4.90;2.15;;;;;;;11.60;84.76;93575.78;5540661;26;19997;-75
2024/04/23 09:16:28;;;;;;;8.90;2.00;;;;;;;11.54;84.98;93585.91;5540711;25;20196;-75
2024/04/23 09:18:54;;;;;;;4.22;2.53;;;;;;;11.55;85.63;93576.00;5540969;26;19989;-76
2024/04/23 09:21:19;;;;;;;6.07;2.20;;;;;;;11.53;85.78;93573.66;5540832;25;20040;-74
2024/04/23 09:23:45;;;;;;;5.47;2.13;;;;;;;11.51;85.66;93564.41;5540959;26;20133;-74
2024/04/23 09:26:11;;;;;;;4.97;1.83;;;;;;;11.50;85.88;93557.50;5540352;26;20080;-74
2024/04/23 09:28:40;;;;;;;6.03;2.50;;;;;;;11.49;86.59;93555.94;5540450;26;20048;-74
2024/04/23 09:31:07;;;;;;;3.90;1.92;;;;;;;11.50;86.80;93562.84;5540510;25;19985;-74
2024/04/23 09:33:33;;;;;;;5.03;1.92;;;;;;;11.47;87.08;93569.59;5540298;26;20088;-74
2024/04/23 09:36:02;;;;;;;8.32;2.50;;;;;;;11.52;86.92;93576.63;5540357;25;20002;-74
2024/04/23 09:38:33;;;;;;;4.15;2.55;;;;;;;11.53;87.16;93581.66;5540413;26;19986;-74
2024/04/23 09:40:58;;;;;;;8.27;2.40;;;;;;;11.53;87.28;93578.22;5540779;26;19982;-74
2024/04/23 09:43:23;;;;;;;7.15;2.33;;;;;;;11.60;87.70;93597.13;5539755;26;20197;-74
2024/04/23 09:45:49;;;;;;;6.88;2.72;;;;;;;11.62;87.03;93592.25;5539989;26;20032;-74
2024/04/23 09:48:15;;;;;;;6.07;2.72;;;;;;;11.64;87.28;93596.19;5540116;25;20151;-74
2024/04/23 09:50:41;;;;;;;4.05;2.00;;;;;;;11.71;87.19;93587.66;5508358;26;19985;-73
2024/04/23 09:53:09;;;;;;;3.83;2.00;;;;;;;11.70;86.95;93564.72;5540208;25;19988;-73
2024/04/23 09:55:36;;;;;;;7.32;2.60;;;;;;;11.73;86.94;93545.38;5540214;25;19985;-73
2024/04/23 09:58:01;;;;;;;6.05;3.15;;;;;;;11.68;87.07;93528.78;5539922;26;19989;-73
2024/04/23 10:00:30;;;;;;;7.88;2.33;;;;;;;11.62;87.50;93525.53;5539867;25;20041;-73
2024/04/23 10:03:04;;;;;;;11.25;3.47;;;;;;;11.63;87.58;93503.06;5539933;26;20001;-73
2024/04/23 10:05:31;;;;;;;6.22;2.42;;;;;;;11.56;87.14;93508.94;5539896;26;20215;-74
2024/04/23 10:08:08;;;;;;;5.90;2.00;;;;;;;11.51;87.38;93516.38;5539646;25;19992;-74
2024/04/23 10:10:40;;;;;;;5.00;1.70;;;;;;;11.38;87.77;93515.53;5539664;26;20200;-73
2024/04/23 10:13:08;;;;;;;4.75;1.67;;;;;;;11.39;88.58;93511.75;5539807;25;20064;-73
2024/04/23 10:15:53;;;;;;;5.75;1.60;;;;;;;11.38;88.52;93494.19;5539261;26;19982;-73
2024/04/23 10:18:36;;;;;;;5.10;2.17;;;;;;;11.40;88.89;93508.00;5508067;26;20197;-74
2024/04/23 10:21:07;;;;;;;5.07;2.10;;;;;;;11.40;89.46;93519.44;5539740;25;20005;-74
2024/04/23 10:23:35;;;;;;;5.22;2.22;;;;;;;11.46;89.64;93520.03;5539581;26;19989;-74
2024/04/23 10:26:01;;;;;;;8.25;2.00;;;;;;;11.49;89.59;93510.56;5539442;25;19992;-74
2024/04/23 10:28:27;;;;;;;11.35;3.00;;;;;;;11.50;89.89;93514.78;5539841;26;19997;-74
2024/04/23 10:30:54;;;;;;;8.32;2.75;;;;;;;11.47;90.00;93500.22;5539536;26;20007;-74
2024/04/23 10:33:20;;;;;;;8.77;2.00;;;;;;;11.56;90.55;93508.16;5539277;25;19982;-74
2024/04/23 10:35:47;;;;;;;5.35;2.33;;;;;;;11.62;90.68;93501.50;5539711;26;19985;-74
2024/04/23 10:38:16;;;;;;;3.95;2.10;;;;;;;11.70;90.11;93497.19;5539930;25;20081;-73
2024/04/23 10:40:44;;;;;;;4.43;1.83;;;;;;;11.70;89.01;93487.28;5539822;25;20006;-74
2024/04/23 10:43:10;;;;;;;4.53;1.38;;;;;;;11.68;88.56;93476.16;5539390;25;20011;-74
2024/04/23 10:45:36;;;;;;;6.97;1.92;;;;;;;11.66;89.01;93483.72;5540199;25;19985;-74
2024/04/23 10:48:07;;;;;;;4.95;1.40;;;;;;;11.65;89.29;93484.84;5539747;26;19981;-75
2024/04/23 10:50:33;;;;;;;3.38;1.45;;;;;;;11.64;89.03;93485.94;5539715;26;20054;-76
2024/04/23 10:53:03;;;;;;;6.53;1.85;;;;;;;11.62;89.08;93488.94;5539575;26;20021;-75
2024/04/23 10:55:29;;;;;;;3.47;1.65;;;;;;;11.60;89.45;93475.16;5507597;26;19996;-75
2024/04/23 10:57:56;;;;;;;4.93;1.80;;;;;;;11.61;89.51;93483.94;5539084;25;20093;-75
2024/04/23 11:00:35;;;;;;;5.65;1.70;;;;;;;11.55;89.34;93471.91;5507143;26;20012;-75
2024/04/23 11:03:15;;;;;;;6.82;1.73;;;;;;;11.59;89.74;93443.44;5507483;26;20042;-75
2024/04/23 11:05:46;;;;;;;7.15;1.80;;;;;;;11.60;90.01;93428.97;5539329;25;20058;-75
2024/04/23 11:08:24;;;;;;;5.35;1.98;;;;;;;11.61;89.86;93422.53;5539215;26;19993;-76
2024/04/23 11:10:51;;;;;;;5.18;1.98;;;;;;;11.64;90.30;93428.00;5538995;26;19989;-75
2024/04/23 11:13:35;;;;;;;5.78;2.05;;;;;;;11.70;90.45;93412.53;5538883;26;20004;-75
2024/04/23 11:16:13;;;;;;;7.20;1.48;;;;;;;11.71;90.10;93410.66;5539187;25;20009;-75
2024/04/23 11:18:41;;;;;;;7.97;2.30;;;;;;;11.70;90.03;93415.22;5538783;26;20096;-74
2024/04/23 11:21:11;;;;;;;3.63;1.98;;;;;;;11.68;90.46;93404.09;5538730;25;19986;-75
2024/04/23 11:23:42;;;;;;;7.25;1.80;;;;;;;11.72;90.31;93388.19;5539040;26;20011;-75
2024/04/23 11:26:11;;;;;;;13.27;1.98;;;;;;;11.75;90.33;93388.31;5538555;26;19991;-75
2024/04/23 11:28:37;;;;;;;3.20;1.30;;;;;;;11.74;90.24;93370.72;5537004;26;19986;-75
2024/04/23 11:31:04;;;;;;;5.05;1.30;;;;;;;11.79;90.26;93372.41;5538747;26;20184;-74
2024/04/23 11:33:30;;;;;;;7.88;2.05;;;;;;;11.80;90.59;93374.72;5538741;25;19990;-74
2024/04/23 11:35:55;;;;;;;5.18;1.33;;;;;;;11.90;89.91;93375.47;5538778;25;19991;-75
2024/04/23 11:38:21;;;;;;;4.65;1.40;;;;;;;11.93;90.27;93378.25;5538849;25;19993;-75